createdAt,value
2023-10-29T00:00:26.116Z,100.00
2023-10-29T00:05:27.650Z,100.00
2023-10-29T00:10:29.076Z,100.00
2023-10-29T00:15:30.552Z,100.00
2023-10-29T00:20:31.998Z,100.00
2023-10-29T00:25:33.423Z,100.00
2023-10-29T00:30:34.853Z,100.00
2023-10-29T00:35:36.252Z,100.00
2023-10-29T00:40:40.850Z,100.00
2023-10-29T00:45:42.869Z,100.00
2023-10-29T00:50:44.297Z,100.00
2023-10-29T00:55:45.777Z,100.00
2023-10-29T01:00:47.419Z,100.00
2023-10-29T01:05:49.569Z,100.00
2023-10-29T01:10:52.565Z,100.00
2023-10-29T01:15:53.953Z,100.00
2023-10-29T01:20:55.353Z,100.00
2023-10-29T01:25:58.021Z,100.00
2023-10-29T01:31:00.345Z,100.00
2023-10-29T01:36:01.967Z,100.00
2023-10-29T01:41:03.505Z,100.00
2023-10-29T01:46:04.923Z,100.00
2023-10-29T01:51:06.805Z,100.00
2023-10-29T01:56:08.912Z,100.00
2023-10-29T02:01:11.719Z,100.00
2023-10-29T02:06:17.162Z,100.00
2023-10-29T02:11:18.492Z,100.00
2023-10-29T02:16:19.904Z,100.00
2023-10-29T02:21:21.904Z,100.00
2023-10-29T02:26:23.849Z,100.00
2023-10-29T02:31:25.461Z,100.00
2023-10-29T02:36:26.843Z,100.00
2023-10-29T02:41:28.301Z,100.00
2023-10-29T02:46:31.846Z,100.00
2023-10-29T02:51:33.525Z,100.00
2023-10-29T02:56:36.846Z,100.00
2023-10-29T03:01:38.554Z,100.00
2023-10-29T03:06:40.544Z,100.00
2023-10-29T03:11:41.989Z,100.00
2023-10-29T03:16:43.384Z,100.00
2023-10-29T03:21:44.804Z,100.00
2023-10-29T03:26:46.222Z,100.00
2023-10-29T03:31:48.030Z,100.00
2023-10-29T03:36:49.612Z,100.00
2023-10-29T03:41:51.019Z,100.00
2023-10-29T03:46:52.767Z,100.00
2023-10-29T03:51:54.222Z,100.00
2023-10-29T03:56:55.665Z,100.00
2023-10-29T04:01:57.100Z,100.00
2023-10-29T04:06:58.499Z,100.00
2023-10-29T04:12:00.485Z,100.00
2023-10-29T04:17:01.921Z,100.00
2023-10-29T04:22:04.050Z,100.00
2023-10-29T04:27:05.773Z,100.00
2023-10-29T04:32:07.274Z,100.00
2023-10-29T04:37:08.628Z,100.00
2023-10-29T04:42:09.968Z,100.00
2023-10-29T04:47:11.422Z,100.00
2023-10-29T04:52:13.015Z,100.00
2023-10-29T04:57:14.393Z,100.00
2023-10-29T05:02:19.052Z,99.83
2023-10-29T05:07:20.964Z,99.17
2023-10-29T05:12:22.345Z,100.00
2023-10-29T05:17:23.712Z,100.00
2023-10-29T05:22:25.127Z,99.23
2023-10-29T05:27:26.495Z,98.05
2023-10-29T05:32:28.089Z,100.00
2023-10-29T05:37:29.574Z,100.00
2023-10-29T05:42:32.570Z,100.00
2023-10-29T05:47:34.300Z,100.00
2023-10-29T05:52:35.892Z,100.00
2023-10-29T05:57:37.315Z,100.00
2023-10-29T06:02:40.142Z,100.00
2023-10-29T06:07:45.200Z,100.00
2023-10-29T06:12:46.810Z,100.00
2023-10-29T06:17:49.510Z,100.00
2023-10-29T06:22:50.972Z,100.00
2023-10-29T06:27:52.321Z,100.00
2023-10-29T06:32:53.804Z,100.00
2023-10-29T06:37:56.128Z,100.00
2023-10-29T06:42:57.516Z,100.00
2023-10-29T06:47:59.329Z,100.00
2023-10-29T06:53:00.738Z,100.00
2023-10-29T06:58:02.146Z,100.00
2023-10-29T07:03:03.860Z,100.00
2023-10-29T07:08:05.503Z,100.00
2023-10-29T07:13:07.059Z,100.00
2023-10-29T07:18:08.680Z,100.00
2023-10-29T07:23:10.193Z,100.00
2023-10-29T07:28:11.598Z,100.00
2023-10-29T07:33:13.122Z,100.00
2023-10-29T07:38:14.806Z,100.00
2023-10-29T07:43:16.483Z,99.12
2023-10-29T07:48:19.049Z,99.91
2023-10-29T07:53:20.590Z,99.33
2023-10-29T07:58:23.092Z,100.00
2023-10-29T08:03:24.674Z,100.00
2023-10-29T08:08:26.148Z,97.50
2023-10-29T08:13:27.535Z,94.89
2023-10-29T08:18:28.961Z,91.83
2023-10-29T08:23:30.784Z,90.51
2023-10-29T08:28:32.326Z,93.39
2023-10-29T08:33:33.892Z,94.70
2023-10-29T08:38:35.628Z,94.75
2023-10-29T08:43:36.972Z,91.29
2023-10-29T08:48:38.939Z,92.41
2023-10-29T08:53:40.392Z,91.58
2023-10-29T08:58:41.784Z,90.62
2023-10-29T09:03:43.611Z,92.35
2023-10-29T09:08:45.057Z,92.31
2023-10-29T09:13:46.459Z,91.89
2023-10-29T09:18:47.812Z,91.16
2023-10-29T09:23:49.168Z,92.46
2023-10-29T09:28:50.547Z,93.02
2023-10-29T09:33:52.417Z,94.43
2023-10-29T09:38:53.884Z,95.58
2023-10-29T09:43:56.804Z,96.92
2023-10-29T09:48:59.404Z,99.29
2023-10-29T09:54:01.099Z,98.71
2023-10-29T09:59:06.107Z,98.51
2023-10-29T10:04:07.685Z,98.86
2023-10-29T10:09:09.432Z,97.75
2023-10-29T10:14:25.459Z,94.21
2023-10-29T10:19:26.827Z,93.11
2023-10-29T10:24:40.719Z,90.07
2023-10-29T10:29:42.167Z,91.30
2023-10-29T10:34:50.967Z,91.53
2023-10-29T10:39:52.340Z,90.49
2023-10-29T10:44:55.451Z,91.46
2023-10-29T10:49:57.489Z,87.88
2023-10-29T10:54:59.175Z,88.94
2023-10-29T11:00:04.919Z,86.64
2023-10-29T11:05:08.148Z,87.83
2023-10-29T11:10:12.875Z,86.86
2023-10-29T11:15:18.201Z,88.92
2023-10-29T11:20:38.135Z,92.28
2023-10-29T11:25:42.670Z,92.03
2023-10-29T11:30:44.054Z,90.57
2023-10-29T11:35:47.544Z,88.41
2023-10-29T11:40:50.985Z,89.07
2023-10-29T11:45:55.862Z,89.11
2023-10-29T11:51:17.574Z,74.51
2023-10-29T11:56:19.213Z,72.88
2023-10-29T12:01:20.646Z,79.22
2023-10-29T12:06:22.107Z,83.13
2023-10-29T12:11:26.227Z,85.99
2023-10-29T12:16:27.586Z,84.47
2023-10-29T12:21:29.064Z,75.57
2023-10-29T12:26:30.542Z,81.67
2023-10-29T12:31:31.996Z,84.45
2023-10-29T12:36:33.448Z,86.76
2023-10-29T12:41:34.880Z,87.40
2023-10-29T12:46:47.699Z,87.96
2023-10-29T12:51:54.010Z,91.06
2023-10-29T12:56:56.527Z,91.87
2023-10-29T13:02:02.116Z,93.26
2023-10-29T13:07:15.053Z,90.86
2023-10-29T13:12:17.822Z,82.36
2023-10-29T13:17:19.323Z,83.45
2023-10-29T13:22:22.933Z,79.64
2023-10-29T13:27:24.320Z,74.88
2023-10-29T13:32:26.125Z,75.72
2023-10-29T13:37:28.109Z,83.00
2023-10-29T13:42:29.481Z,87.78
2023-10-29T13:47:30.907Z,91.11
2023-10-29T13:52:32.349Z,93.56
2023-10-29T13:57:35.046Z,93.69
2023-10-29T14:02:36.706Z,97.46
2023-10-29T14:07:38.802Z,95.27
2023-10-29T14:12:44.445Z,99.31
2023-10-29T14:17:45.872Z,100.00
2023-10-29T14:22:47.926Z,100.00
2023-10-29T14:27:49.288Z,100.00
2023-10-29T14:32:50.698Z,100.00
2023-10-29T14:37:53.376Z,100.00
2023-10-29T14:43:09.284Z,98.52
2023-10-29T14:48:17.368Z,98.14
2023-10-29T14:53:19.432Z,96.86
2023-10-29T14:58:20.784Z,95.35
2023-10-29T15:03:23.164Z,95.50
2023-10-29T15:08:25.314Z,94.33
2023-10-29T15:13:26.703Z,94.30
2023-10-29T15:18:29.034Z,92.85
2023-10-29T15:23:30.406Z,92.92
2023-10-29T15:28:31.753Z,93.00
2023-10-29T15:33:33.118Z,94.98
2023-10-29T15:38:34.754Z,94.26
2023-10-29T15:43:36.954Z,94.24
2023-10-29T15:48:38.693Z,94.42
2023-10-29T15:53:40.345Z,95.42
2023-10-29T15:58:41.679Z,96.66
2023-10-29T16:03:44.407Z,97.36
2023-10-29T16:08:45.808Z,97.28
2023-10-29T16:13:47.144Z,97.55
2023-10-29T16:18:48.602Z,96.65
2023-10-29T16:23:50.007Z,98.21
2023-10-29T16:28:51.378Z,99.83
2023-10-29T16:33:52.859Z,100.00
2023-10-29T16:38:57.064Z,100.00
2023-10-29T16:43:59.631Z,100.00
2023-10-29T16:49:03.026Z,100.00
2023-10-29T16:54:04.947Z,100.00
2023-10-29T16:59:06.443Z,100.00
2023-10-29T17:04:07.981Z,100.00
2023-10-29T17:09:09.412Z,100.00
2023-10-29T17:14:15.371Z,100.00
2023-10-29T17:19:16.992Z,100.00
2023-10-29T17:24:18.557Z,100.00
2023-10-29T17:29:19.967Z,100.00
2023-10-29T17:34:21.439Z,100.00
2023-10-29T17:39:26.129Z,100.00
2023-10-29T17:44:28.622Z,100.00
2023-10-29T17:49:29.963Z,100.00
2023-10-29T17:54:33.001Z,100.00
2023-10-29T17:59:34.685Z,100.00
2023-10-29T18:04:36.062Z,100.00
2023-10-29T18:09:37.555Z,100.00
2023-10-29T18:14:39.201Z,100.00
2023-10-29T18:19:40.849Z,100.00
2023-10-29T18:24:42.315Z,100.00
2023-10-29T18:29:44.369Z,100.00
2023-10-29T18:34:45.903Z,99.12
2023-10-29T18:39:47.462Z,99.45
2023-10-29T18:44:49.480Z,100.00
2023-10-29T18:49:51.161Z,97.74
2023-10-29T18:54:53.085Z,97.99
2023-10-29T18:59:54.773Z,97.96
2023-10-29T19:04:56.156Z,95.29
2023-10-29T19:09:58.581Z,96.40
2023-10-29T19:15:00.059Z,96.04
2023-10-29T19:20:01.445Z,96.14
2023-10-29T19:25:03.348Z,95.43
2023-10-29T19:30:05.857Z,94.52
2023-10-29T19:35:07.497Z,94.37
2023-10-29T19:40:09.683Z,96.59
2023-10-29T19:45:11.125Z,97.68
2023-10-29T19:50:13.534Z,98.41
2023-10-29T19:55:17.168Z,98.92
2023-10-29T20:00:20.847Z,100.00
2023-10-29T20:05:22.611Z,100.00
2023-10-29T20:10:24.144Z,100.00
2023-10-29T20:15:25.636Z,100.00
2023-10-29T20:20:27.482Z,100.00
2023-10-29T20:25:29.069Z,100.00
2023-10-29T20:30:30.483Z,100.00
2023-10-29T20:35:33.808Z,100.00
2023-10-29T20:40:35.425Z,100.00
2023-10-29T20:45:36.979Z,100.00
2023-10-29T20:50:38.475Z,100.00
2023-10-29T20:55:39.869Z,100.00
2023-10-29T21:00:41.918Z,100.00
2023-10-29T21:05:44.230Z,100.00
2023-10-29T21:10:45.754Z,100.00
2023-10-29T21:15:47.907Z,100.00
2023-10-29T21:20:49.273Z,100.00
2023-10-29T21:25:53.665Z,100.00
2023-10-29T21:30:55.044Z,100.00
2023-10-29T21:35:56.547Z,100.00
2023-10-29T21:41:05.036Z,100.00
2023-10-29T21:46:06.917Z,100.00
2023-10-29T21:51:08.544Z,100.00
2023-10-29T21:56:10.204Z,100.00
2023-10-29T22:01:13.396Z,100.00
2023-10-29T22:06:14.936Z,100.00
2023-10-29T22:11:16.317Z,100.00
2023-10-29T22:16:17.729Z,100.00
2023-10-29T22:21:19.140Z,100.00
2023-10-29T22:26:20.512Z,100.00
2023-10-29T22:31:21.903Z,100.00
2023-10-29T22:36:23.354Z,100.00
2023-10-29T22:41:25.003Z,100.00
2023-10-29T22:46:26.371Z,100.00
2023-10-29T22:51:27.807Z,100.00
2023-10-29T22:56:29.371Z,100.00
2023-10-29T23:01:30.856Z,100.00
2023-10-29T23:06:32.306Z,100.00
2023-10-29T23:11:33.830Z,100.00
2023-10-29T23:16:35.376Z,100.00
2023-10-29T23:21:37.006Z,100.00
2023-10-29T23:26:38.653Z,100.00
2023-10-29T23:31:40.241Z,100.00
2023-10-29T23:36:41.708Z,100.00
2023-10-29T23:41:43.140Z,100.00
2023-10-29T23:46:44.499Z,100.00
2023-10-29T23:51:45.857Z,100.00
2023-10-29T23:56:47.299Z,100.00
